sensor_id;sensor_type;location;lat;lon;timestamp;temperature;humidity
10986;DHT22;5546;48.714;8.738;2022-07-24T00:01:29;24.80;76.10
10986;DHT22;5546;48.714;8.738;2022-07-24T00:03:55;24.90;75.20
10986;DHT22;5546;48.714;8.738;2022-07-24T00:06:21;24.50;75.80
10986;DHT22;5546;48.714;8.738;2022-07-24T00:08:46;24.70;77.60
10986;DHT22;5546;48.714;8.738;2022-07-24T00:11:12;24.70;78.10
10986;DHT22;5546;48.714;8.738;2022-07-24T00:13:38;24.70;76.20
10986;DHT22;5546;48.714;8.738;2022-07-24T00:16:04;24.50;76.30
10986;DHT22;5546;48.714;8.738;2022-07-24T00:18:29;24.60;76.20
10986;DHT22;5546;48.714;8.738;2022-07-24T00:20:55;24.30;77.80
10986;DHT22;5546;48.714;8.738;2022-07-24T00:23:20;24.30;78.40
10986;DHT22;5546;48.714;8.738;2022-07-24T00:25:48;24.30;78.40
10986;DHT22;5546;48.714;8.738;2022-07-24T00:28:13;24.40;78.10
10986;DHT22;5546;48.714;8.738;2022-07-24T00:30:39;24.50;78.90
10986;DHT22;5546;48.714;8.738;2022-07-24T00:35:31;24.20;78.30
10986;DHT22;5546;48.714;8.738;2022-07-24T00:37:56;24.30;77.80
10986;DHT22;5546;48.714;8.738;2022-07-24T00:40:22;24.40;78.50
10986;DHT22;5546;48.714;8.738;2022-07-24T00:42:48;24.30;77.70
10986;DHT22;5546;48.714;8.738;2022-07-24T00:45:13;24.10;78.90
10986;DHT22;5546;48.714;8.738;2022-07-24T00:50:05;24.20;79.10
10986;DHT22;5546;48.714;8.738;2022-07-24T00:52:31;24.30;80.00
10986;DHT22;5546;48.714;8.738;2022-07-24T00:54:57;24.00;80.90
10986;DHT22;5546;48.714;8.738;2022-07-24T00:57:23;24.00;79.90
10986;DHT22;5546;48.714;8.738;2022-07-24T00:59:48;23.90;79.70
10986;DHT22;5546;48.714;8.738;2022-07-24T01:04:40;23.80;80.00
10986;DHT22;5546;48.714;8.738;2022-07-24T01:07:07;23.90;79.70
10986;DHT22;5546;48.714;8.738;2022-07-24T01:09:33;24.20;79.10
10986;DHT22;5546;48.714;8.738;2022-07-24T01:11:58;24.10;78.20
10986;DHT22;5546;48.714;8.738;2022-07-24T01:14:25;24.10;78.80
10986;DHT22;5546;48.714;8.738;2022-07-24T01:16:51;23.70;79.50
10986;DHT22;5546;48.714;8.738;2022-07-24T01:19:17;23.70;80.20
10986;DHT22;5546;48.714;8.738;2022-07-24T01:21:50;23.90;79.40
10986;DHT22;5546;48.714;8.738;2022-07-24T01:24:17;23.60;80.50
10986;DHT22;5546;48.714;8.738;2022-07-24T01:26:43;23.80;79.70
10986;DHT22;5546;48.714;8.738;2022-07-24T01:29:09;23.80;79.50
10986;DHT22;5546;48.714;8.738;2022-07-24T01:31:34;23.50;80.40
10986;DHT22;5546;48.714;8.738;2022-07-24T01:34:00;23.40;81.50
10986;DHT22;5546;48.714;8.738;2022-07-24T01:36:26;23.30;81.60
10986;DHT22;5546;48.714;8.738;2022-07-24T01:38:51;23.40;81.00
10986;DHT22;5546;48.714;8.738;2022-07-24T01:41:17;22.70;82.50
10986;DHT22;5546;48.714;8.738;2022-07-24T01:43:43;22.70;83.60
10986;DHT22;5546;48.714;8.738;2022-07-24T01:46:08;22.70;84.10
10986;DHT22;5546;48.714;8.738;2022-07-24T01:48:35;23.20;81.90
10986;DHT22;5546;48.714;8.738;2022-07-24T01:53:27;23.20;81.00
10986;DHT22;5546;48.714;8.738;2022-07-24T01:55:55;23.20;80.90
10986;DHT22;5546;48.714;8.738;2022-07-24T01:58:20;23.20;80.60
10986;DHT22;5546;48.714;8.738;2022-07-24T02:00:46;23.40;80.10
10986;DHT22;5546;48.714;8.738;2022-07-24T02:03:12;23.10;80.80
10986;DHT22;5546;48.714;8.738;2022-07-24T02:05:37;23.10;80.50
10986;DHT22;5546;48.714;8.738;2022-07-24T02:08:03;23.30;79.50
10986;DHT22;5546;48.714;8.738;2022-07-24T02:10:29;23.20;80.10
10986;DHT22;5546;48.714;8.738;2022-07-24T02:12:56;22.90;80.80
10986;DHT22;5546;48.714;8.738;2022-07-24T02:15:22;22.50;82.90
10986;DHT22;5546;48.714;8.738;2022-07-24T02:17:52;22.60;82.40
10986;DHT22;5546;48.714;8.738;2022-07-24T02:20:18;22.60;82.30
10986;DHT22;5546;48.714;8.738;2022-07-24T02:22:44;23.00;80.80
10986;DHT22;5546;48.714;8.738;2022-07-24T02:25:10;22.90;81.20
10986;DHT22;5546;48.714;8.738;2022-07-24T02:27:36;23.00;81.20
10986;DHT22;5546;48.714;8.738;2022-07-24T02:30:08;23.10;81.00
10986;DHT22;5546;48.714;8.738;2022-07-24T02:32:34;23.00;80.90
10986;DHT22;5546;48.714;8.738;2022-07-24T02:35:00;22.70;81.90
10986;DHT22;5546;48.714;8.738;2022-07-24T02:37:26;22.70;81.80
10986;DHT22;5546;48.714;8.738;2022-07-24T02:39:51;22.70;81.40
10986;DHT22;5546;48.714;8.738;2022-07-24T02:42:17;22.90;82.20
10986;DHT22;5546;48.714;8.738;2022-07-24T02:44:42;22.50;82.90
10986;DHT22;5546;48.714;8.738;2022-07-24T02:47:08;22.80;82.00
10986;DHT22;5546;48.714;8.738;2022-07-24T02:49:34;22.90;80.90
10986;DHT22;5546;48.714;8.738;2022-07-24T02:52:01;22.90;81.20
10986;DHT22;5546;48.714;8.738;2022-07-24T02:54:27;23.00;81.00
10986;DHT22;5546;48.714;8.738;2022-07-24T02:56:52;23.00;81.30
10986;DHT22;5546;48.714;8.738;2022-07-24T02:59:18;23.00;81.70
10986;DHT22;5546;48.714;8.738;2022-07-24T03:01:43;23.10;81.30
10986;DHT22;5546;48.714;8.738;2022-07-24T03:04:09;23.00;80.80
10986;DHT22;5546;48.714;8.738;2022-07-24T03:06:35;23.00;80.50
10986;DHT22;5546;48.714;8.738;2022-07-24T03:09:01;23.00;81.20
10986;DHT22;5546;48.714;8.738;2022-07-24T03:11:26;22.90;81.40
10986;DHT22;5546;48.714;8.738;2022-07-24T03:13:52;22.90;81.50
10986;DHT22;5546;48.714;8.738;2022-07-24T03:16:17;22.80;81.60
10986;DHT22;5546;48.714;8.738;2022-07-24T03:18:43;22.80;81.80
10986;DHT22;5546;48.714;8.738;2022-07-24T03:21:14;22.80;82.40
10986;DHT22;5546;48.714;8.738;2022-07-24T03:23:40;22.60;82.50
10986;DHT22;5546;48.714;8.738;2022-07-24T03:26:05;22.40;83.20
10986;DHT22;5546;48.714;8.738;2022-07-24T03:28:31;22.50;83.20
10986;DHT22;5546;48.714;8.738;2022-07-24T03:30:56;22.50;83.30
10986;DHT22;5546;48.714;8.738;2022-07-24T03:33:22;22.50;83.10
10986;DHT22;5546;48.714;8.738;2022-07-24T03:35:48;22.40;83.50
10986;DHT22;5546;48.714;8.738;2022-07-24T03:38:14;22.40;84.30
10986;DHT22;5546;48.714;8.738;2022-07-24T03:40:40;22.20;84.20
10986;DHT22;5546;48.714;8.738;2022-07-24T03:43:05;22.60;83.60
10986;DHT22;5546;48.714;8.738;2022-07-24T03:45:31;22.80;82.60
10986;DHT22;5546;48.714;8.738;2022-07-24T03:47:56;22.70;82.60
10986;DHT22;5546;48.714;8.738;2022-07-24T03:50:22;22.60;83.30
10986;DHT22;5546;48.714;8.738;2022-07-24T03:52:47;22.60;84.00
10986;DHT22;5546;48.714;8.738;2022-07-24T03:55:13;22.30;84.20
10986;DHT22;5546;48.714;8.738;2022-07-24T03:57:38;22.40;84.30
10986;DHT22;5546;48.714;8.738;2022-07-24T04:00:05;22.40;84.10
10986;DHT22;5546;48.714;8.738;2022-07-24T04:02:31;22.40;84.70
10986;DHT22;5546;48.714;8.738;2022-07-24T04:04:56;22.70;82.90
10986;DHT22;5546;48.714;8.738;2022-07-24T04:07:22;22.70;83.60
10986;DHT22;5546;48.714;8.738;2022-07-24T04:09:47;22.80;82.70
10986;DHT22;5546;48.714;8.738;2022-07-24T04:12:13;22.80;82.50
10986;DHT22;5546;48.714;8.738;2022-07-24T04:14:38;23.00;82.30
10986;DHT22;5546;48.714;8.738;2022-07-24T04:17:04;22.80;83.00
10986;DHT22;5546;48.714;8.738;2022-07-24T04:19:30;22.80;82.70
10986;DHT22;5546;48.714;8.738;2022-07-24T04:21:55;22.60;83.00
10986;DHT22;5546;48.714;8.738;2022-07-24T04:26:47;22.30;84.70
10986;DHT22;5546;48.714;8.738;2022-07-24T04:29:13;22.50;84.40
10986;DHT22;5546;48.714;8.738;2022-07-24T04:34:04;23.00;83.50
10986;DHT22;5546;48.714;8.738;2022-07-24T04:36:30;23.10;83.80
10986;DHT22;5546;48.714;8.738;2022-07-24T04:38:55;22.80;84.90
10986;DHT22;5546;48.714;8.738;2022-07-24T04:41:21;22.70;85.70
10986;DHT22;5546;48.714;8.738;2022-07-24T04:43:47;22.70;85.00
10986;DHT22;5546;48.714;8.738;2022-07-24T04:46:12;22.20;87.00
10986;DHT22;5546;48.714;8.738;2022-07-24T04:48:38;22.10;87.80
10986;DHT22;5546;48.714;8.738;2022-07-24T04:51:03;22.10;87.60
10986;DHT22;5546;48.714;8.738;2022-07-24T04:53:29;22.40;87.00
10986;DHT22;5546;48.714;8.738;2022-07-24T04:55:56;22.70;85.80
10986;DHT22;5546;48.714;8.738;2022-07-24T04:58:22;22.80;85.30
10986;DHT22;5546;48.714;8.738;2022-07-24T05:00:47;22.80;85.30
10986;DHT22;5546;48.714;8.738;2022-07-24T05:03:13;22.80;84.90
10986;DHT22;5546;48.714;8.738;2022-07-24T05:05:39;22.80;85.20
10986;DHT22;5546;48.714;8.738;2022-07-24T05:08:04;22.90;84.70
10986;DHT22;5546;48.714;8.738;2022-07-24T05:10:30;23.10;84.00
10986;DHT22;5546;48.714;8.738;2022-07-24T05:12:55;23.20;84.00
10986;DHT22;5546;48.714;8.738;2022-07-24T05:17:47;23.50;82.10
10986;DHT22;5546;48.714;8.738;2022-07-24T05:20:13;23.70;81.00
10986;DHT22;5546;48.714;8.738;2022-07-24T05:22:39;23.20;81.20
10986;DHT22;5546;48.714;8.738;2022-07-24T05:25:05;23.00;82.30
10986;DHT22;5546;48.714;8.738;2022-07-24T05:27:31;23.00;82.90
10986;DHT22;5546;48.714;8.738;2022-07-24T05:29:56;23.10;81.90
10986;DHT22;5546;48.714;8.738;2022-07-24T05:32:22;23.10;81.80
10986;DHT22;5546;48.714;8.738;2022-07-24T05:37:13;23.90;79.30
10986;DHT22;5546;48.714;8.738;2022-07-24T05:39:39;24.10;79.10
10986;DHT22;5546;48.714;8.738;2022-07-24T05:44:30;25.10;76.30
10986;DHT22;5546;48.714;8.738;2022-07-24T05:46:56;25.60;74.00
10986;DHT22;5546;48.714;8.738;2022-07-24T05:49:22;25.80;74.00
10986;DHT22;5546;48.714;8.738;2022-07-24T05:51:47;26.50;72.10
10986;DHT22;5546;48.714;8.738;2022-07-24T05:54:13;26.60;71.80
10986;DHT22;5546;48.714;8.738;2022-07-24T05:56:38;26.50;71.90
10986;DHT22;5546;48.714;8.738;2022-07-24T05:59:04;27.20;70.00
10986;DHT22;5546;48.714;8.738;2022-07-24T06:01:29;27.30;70.70
10986;DHT22;5546;48.714;8.738;2022-07-24T06:03:55;27.80;67.20
10986;DHT22;5546;48.714;8.738;2022-07-24T06:06:20;28.20;66.30
10986;DHT22;5546;48.714;8.738;2022-07-24T06:08:46;28.30;65.90
10986;DHT22;5546;48.714;8.738;2022-07-24T06:13:38;27.30;68.40
10986;DHT22;5546;48.714;8.738;2022-07-24T06:16:04;27.30;67.90
10986;DHT22;5546;48.714;8.738;2022-07-24T06:18:29;27.30;68.50
10986;DHT22;5546;48.714;8.738;2022-07-24T06:20:55;28.30;65.80
10986;DHT22;5546;48.714;8.738;2022-07-24T06:23:20;28.80;64.10
10986;DHT22;5546;48.714;8.738;2022-07-24T06:25:46;29.50;62.70
10986;DHT22;5546;48.714;8.738;2022-07-24T06:28:12;29.30;62.40
10986;DHT22;5546;48.714;8.738;2022-07-24T06:33:03;29.40;62.00
10986;DHT22;5546;48.714;8.738;2022-07-24T06:35:29;29.80;61.40
10986;DHT22;5546;48.714;8.738;2022-07-24T06:37:58;29.70;61.10
10986;DHT22;5546;48.714;8.738;2022-07-24T06:40:25;29.80;59.70
10986;DHT22;5546;48.714;8.738;2022-07-24T06:42:50;29.90;59.90
10986;DHT22;5546;48.714;8.738;2022-07-24T06:45:16;29.50;60.80
10986;DHT22;5546;48.714;8.738;2022-07-24T06:47:42;29.30;60.30
10986;DHT22;5546;48.714;8.738;2022-07-24T06:50:08;29.70;60.70
10986;DHT22;5546;48.714;8.738;2022-07-24T06:52:34;30.10;59.10
10986;DHT22;5546;48.714;8.738;2022-07-24T06:55:00;30.90;57.90
10986;DHT22;5546;48.714;8.738;2022-07-24T06:57:25;31.40;57.30
10986;DHT22;5546;48.714;8.738;2022-07-24T06:59:52;32.00;56.40
10986;DHT22;5546;48.714;8.738;2022-07-24T07:02:18;32.20;56.70
10986;DHT22;5546;48.714;8.738;2022-07-24T07:04:44;32.70;55.30
10986;DHT22;5546;48.714;8.738;2022-07-24T07:07:09;32.20;56.10
10986;DHT22;5546;48.714;8.738;2022-07-24T07:09:35;32.80;55.10
10986;DHT22;5546;48.714;8.738;2022-07-24T07:12:02;33.70;53.90
10986;DHT22;5546;48.714;8.738;2022-07-24T07:14:27;35.40;49.80
10986;DHT22;5546;48.714;8.738;2022-07-24T07:16:53;34.90;50.40
10986;DHT22;5546;48.714;8.738;2022-07-24T07:19:18;35.00;50.00
10986;DHT22;5546;48.714;8.738;2022-07-24T07:24:10;34.90;50.30
10986;DHT22;5546;48.714;8.738;2022-07-24T07:26:36;36.30;47.70
10986;DHT22;5546;48.714;8.738;2022-07-24T07:29:02;36.70;47.40
10986;DHT22;5546;48.714;8.738;2022-07-24T07:31:28;37.20;46.00
10986;DHT22;5546;48.714;8.738;2022-07-24T07:33:53;36.80;44.20
10986;DHT22;5546;48.714;8.738;2022-07-24T07:36:19;36.40;44.50
10986;DHT22;5546;48.714;8.738;2022-07-24T07:38:45;37.00;45.00
10986;DHT22;5546;48.714;8.738;2022-07-24T07:41:11;38.10;42.70
10986;DHT22;5546;48.714;8.738;2022-07-24T07:43:38;38.10;41.50
10986;DHT22;5546;48.714;8.738;2022-07-24T07:46:04;37.40;42.30
10986;DHT22;5546;48.714;8.738;2022-07-24T07:48:30;38.20;41.00
10986;DHT22;5546;48.714;8.738;2022-07-24T07:50:56;36.50;42.10
10986;DHT22;5546;48.714;8.738;2022-07-24T07:55:48;36.30;43.40
10986;DHT22;5546;48.714;8.738;2022-07-24T07:58:17;37.20;42.10
10986;DHT22;5546;48.714;8.738;2022-07-24T08:00:42;37.20;42.60
10986;DHT22;5546;48.714;8.738;2022-07-24T08:03:08;38.50;39.40
10986;DHT22;5546;48.714;8.738;2022-07-24T08:05:34;38.40;39.80
10986;DHT22;5546;48.714;8.738;2022-07-24T08:07:59;38.50;39.40
10986;DHT22;5546;48.714;8.738;2022-07-24T08:10:25;38.20;39.70
10986;DHT22;5546;48.714;8.738;2022-07-24T08:12:50;38.40;38.60
10986;DHT22;5546;48.714;8.738;2022-07-24T08:15:16;39.10;38.30
10986;DHT22;5546;48.714;8.738;2022-07-24T08:17:44;39.20;38.90
10986;DHT22;5546;48.714;8.738;2022-07-24T08:20:10;40.60;37.60
10986;DHT22;5546;48.714;8.738;2022-07-24T08:22:36;40.70;37.40
10986;DHT22;5546;48.714;8.738;2022-07-24T08:25:02;40.90;36.70
10986;DHT22;5546;48.714;8.738;2022-07-24T08:27:27;40.10;37.30
10986;DHT22;5546;48.714;8.738;2022-07-24T08:29:53;40.10;37.60
10986;DHT22;5546;48.714;8.738;2022-07-24T08:32:20;40.80;36.00
10986;DHT22;5546;48.714;8.738;2022-07-24T08:34:45;40.40;36.30
10986;DHT22;5546;48.714;8.738;2022-07-24T08:39:37;38.80;38.10
10986;DHT22;5546;48.714;8.738;2022-07-24T08:42:03;38.20;38.30
10986;DHT22;5546;48.714;8.738;2022-07-24T08:44:28;38.10;39.00
10986;DHT22;5546;48.714;8.738;2022-07-24T08:46:54;37.20;40.30
10986;DHT22;5546;48.714;8.738;2022-07-24T08:49:23;37.40;39.90
10986;DHT22;5546;48.714;8.738;2022-07-24T08:51:51;36.60;40.20
10986;DHT22;5546;48.714;8.738;2022-07-24T08:54:16;36.40;42.10
10986;DHT22;5546;48.714;8.738;2022-07-24T08:56:42;36.60;40.70
10986;DHT22;5546;48.714;8.738;2022-07-24T08:59:21;36.20;41.00
10986;DHT22;5546;48.714;8.738;2022-07-24T09:01:48;34.40;43.20
10986;DHT22;5546;48.714;8.738;2022-07-24T09:04:42;34.50;43.50
10986;DHT22;5546;48.714;8.738;2022-07-24T09:07:14;34.50;43.80
10986;DHT22;5546;48.714;8.738;2022-07-24T09:09:41;34.70;43.30
10986;DHT22;5546;48.714;8.738;2022-07-24T09:12:17;34.10;45.90
10986;DHT22;5546;48.714;8.738;2022-07-24T09:14:47;34.60;44.10
10986;DHT22;5546;48.714;8.738;2022-07-24T09:17:16;35.90;42.30
10986;DHT22;5546;48.714;8.738;2022-07-24T09:19:56;36.90;40.80
10986;DHT22;5546;48.714;8.738;2022-07-24T09:22:25;36.90;40.60
10986;DHT22;5546;48.714;8.738;2022-07-24T09:25:15;38.30;39.30
10986;DHT22;5546;48.714;8.738;2022-07-24T09:27:53;41.20;36.30
10986;DHT22;5546;48.714;8.738;2022-07-24T09:30:42;42.90;34.30
10986;DHT22;5546;48.714;8.738;2022-07-24T09:33:15;39.90;36.40
10986;DHT22;5546;48.714;8.738;2022-07-24T09:35:46;37.20;39.40
10986;DHT22;5546;48.714;8.738;2022-07-24T09:38:18;37.40;39.20
10986;DHT22;5546;48.714;8.738;2022-07-24T09:40:50;37.60;39.00
10986;DHT22;5546;48.714;8.738;2022-07-24T09:45:54;37.60;38.60
10986;DHT22;5546;48.714;8.738;2022-07-24T09:48:31;38.40;38.10
10986;DHT22;5546;48.714;8.738;2022-07-24T09:51:03;40.20;36.20
10986;DHT22;5546;48.714;8.738;2022-07-24T09:53:31;40.70;35.30
10986;DHT22;5546;48.714;8.738;2022-07-24T09:56:06;40.20;36.20
10986;DHT22;5546;48.714;8.738;2022-07-24T09:58:35;41.30;35.20
10986;DHT22;5546;48.714;8.738;2022-07-24T10:01:03;41.30;35.20
10986;DHT22;5546;48.714;8.738;2022-07-24T10:03:31;41.30;35.00
10986;DHT22;5546;48.714;8.738;2022-07-24T10:06:03;40.70;35.10
10986;DHT22;5546;48.714;8.738;2022-07-24T10:08:30;40.10;35.90
10986;DHT22;5546;48.714;8.738;2022-07-24T10:10:56;38.20;37.90
10986;DHT22;5546;48.714;8.738;2022-07-24T10:16:02;35.20;41.40
10986;DHT22;5546;48.714;8.738;2022-07-24T10:21:08;33.90;44.10
10986;DHT22;5546;48.714;8.738;2022-07-24T10:26:35;32.00;47.10
10986;DHT22;5546;48.714;8.738;2022-07-24T10:29:10;31.90;47.10
10986;DHT22;5546;48.714;8.738;2022-07-24T10:31:45;32.80;46.10
10986;DHT22;5546;48.714;8.738;2022-07-24T10:42:20;36.80;41.00
10986;DHT22;5546;48.714;8.738;2022-07-24T10:45:16;36.90;40.40
10986;DHT22;5546;48.714;8.738;2022-07-24T10:47:43;37.50;40.10
10986;DHT22;5546;48.714;8.738;2022-07-24T10:50:09;37.40;39.70
10986;DHT22;5546;48.714;8.738;2022-07-24T10:52:35;37.50;39.40
10986;DHT22;5546;48.714;8.738;2022-07-24T10:55:31;37.50;40.10
10986;DHT22;5546;48.714;8.738;2022-07-24T10:58:00;37.00;40.20
10986;DHT22;5546;48.714;8.738;2022-07-24T11:00:37;36.60;40.80
10986;DHT22;5546;48.714;8.738;2022-07-24T11:03:06;36.00;41.50
10986;DHT22;5546;48.714;8.738;2022-07-24T11:05:34;35.80;42.20
10986;DHT22;5546;48.714;8.738;2022-07-24T11:10:48;38.40;38.40
10986;DHT22;5546;48.714;8.738;2022-07-24T11:21:40;42.00;34.30
10986;DHT22;5546;48.714;8.738;2022-07-24T11:34:25;43.90;32.40
10986;DHT22;5546;48.714;8.738;2022-07-24T11:36:53;43.00;32.30
10986;DHT22;5546;48.714;8.738;2022-07-24T11:39:25;44.70;31.40
10986;DHT22;5546;48.714;8.738;2022-07-24T11:41:54;44.00;31.60
10986;DHT22;5546;48.714;8.738;2022-07-24T11:44:42;43.30;32.30
10986;DHT22;5546;48.714;8.738;2022-07-24T11:47:09;43.60;31.80
10986;DHT22;5546;48.714;8.738;2022-07-24T11:49:46;42.50;32.70
10986;DHT22;5546;48.714;8.738;2022-07-24T11:52:20;40.70;34.10
10986;DHT22;5546;48.714;8.738;2022-07-24T11:54:48;39.40;36.50
10986;DHT22;5546;48.714;8.738;2022-07-24T11:57:29;40.50;34.50
10986;DHT22;5546;48.714;8.738;2022-07-24T11:59:55;40.60;35.60
10986;DHT22;5546;48.714;8.738;2022-07-24T12:02:22;40.50;35.90
10986;DHT22;5546;48.714;8.738;2022-07-24T12:04:49;41.70;34.60
10986;DHT22;5546;48.714;8.738;2022-07-24T12:09:58;40.00;36.40
10986;DHT22;5546;48.714;8.738;2022-07-24T12:12:28;40.70;35.80
10986;DHT22;5546;48.714;8.738;2022-07-24T12:15:24;41.40;35.30
10986;DHT22;5546;48.714;8.738;2022-07-24T12:20:21;40.20;36.30
10986;DHT22;5546;48.714;8.738;2022-07-24T12:22:47;39.90;35.80
10986;DHT22;5546;48.714;8.738;2022-07-24T12:25:13;39.10;36.40
10986;DHT22;5546;48.714;8.738;2022-07-24T12:27:44;39.30;37.10
10986;DHT22;5546;48.714;8.738;2022-07-24T12:30:27;39.80;36.20
10986;DHT22;5546;48.714;8.738;2022-07-24T12:35:20;39.40;36.60
10986;DHT22;5546;48.714;8.738;2022-07-24T12:37:45;41.00;35.40
10986;DHT22;5546;48.714;8.738;2022-07-24T12:40:22;42.00;33.70
10986;DHT22;5546;48.714;8.738;2022-07-24T12:42:59;41.70;33.70
10986;DHT22;5546;48.714;8.738;2022-07-24T12:45:25;41.60;33.80
10986;DHT22;5546;48.714;8.738;2022-07-24T12:48:20;42.20;33.30
10986;DHT22;5546;48.714;8.738;2022-07-24T12:51:04;42.80;32.20
10986;DHT22;5546;48.714;8.738;2022-07-24T12:53:32;42.90;32.80
10986;DHT22;5546;48.714;8.738;2022-07-24T12:56:10;43.40;32.20
10986;DHT22;5546;48.714;8.738;2022-07-24T12:58:53;44.60;31.40
10986;DHT22;5546;48.714;8.738;2022-07-24T13:01:20;45.90;30.30
10986;DHT22;5546;48.714;8.738;2022-07-24T13:03:59;44.50;30.10
10986;DHT22;5546;48.714;8.738;2022-07-24T13:06:33;45.40;29.60
10986;DHT22;5546;48.714;8.738;2022-07-24T13:08:59;45.60;30.00
10986;DHT22;5546;48.714;8.738;2022-07-24T13:11:25;46.30;29.30
10986;DHT22;5546;48.714;8.738;2022-07-24T13:13:50;44.90;29.40
10986;DHT22;5546;48.714;8.738;2022-07-24T13:16:16;44.70;29.80
10986;DHT22;5546;48.714;8.738;2022-07-24T13:18:41;44.50;30.70
10986;DHT22;5546;48.714;8.738;2022-07-24T13:21:07;45.10;30.30
10986;DHT22;5546;48.714;8.738;2022-07-24T13:23:32;45.30;30.40
10986;DHT22;5546;48.714;8.738;2022-07-24T13:25:58;43.90;29.80
10986;DHT22;5546;48.714;8.738;2022-07-24T13:28:23;43.70;30.70
10986;DHT22;5546;48.714;8.738;2022-07-24T13:30:49;42.20;32.20
10986;DHT22;5546;48.714;8.738;2022-07-24T13:35:40;44.10;30.70
10986;DHT22;5546;48.714;8.738;2022-07-24T13:38:06;44.20;31.20
10986;DHT22;5546;48.714;8.738;2022-07-24T13:40:32;45.20;29.70
10986;DHT22;5546;48.714;8.738;2022-07-24T13:42:57;44.30;30.00
10986;DHT22;5546;48.714;8.738;2022-07-24T13:45:23;45.30;29.80
10986;DHT22;5546;48.714;8.738;2022-07-24T13:50:14;44.30;29.60
10986;DHT22;5546;48.714;8.738;2022-07-24T13:52:40;44.40;30.00
10986;DHT22;5546;48.714;8.738;2022-07-24T13:55:06;44.40;30.00
10986;DHT22;5546;48.714;8.738;2022-07-24T13:57:32;44.60;29.80
10986;DHT22;5546;48.714;8.738;2022-07-24T13:59:57;42.40;31.10
10986;DHT22;5546;48.714;8.738;2022-07-24T14:02:23;41.70;31.70
10986;DHT22;5546;48.714;8.738;2022-07-24T14:09:40;40.10;33.10
10986;DHT22;5546;48.714;8.738;2022-07-24T14:12:06;40.60;33.60
10986;DHT22;5546;48.714;8.738;2022-07-24T14:14:32;41.80;33.10
10986;DHT22;5546;48.714;8.738;2022-07-24T14:16:57;41.20;32.60
10986;DHT22;5546;48.714;8.738;2022-07-24T14:19:23;42.00;31.80
10986;DHT22;5546;48.714;8.738;2022-07-24T14:21:49;41.60;31.90
10986;DHT22;5546;48.714;8.738;2022-07-24T14:24:16;41.20;32.10
10986;DHT22;5546;48.714;8.738;2022-07-24T14:26:42;41.50;32.30
10986;DHT22;5546;48.714;8.738;2022-07-24T14:31:34;41.00;32.30
10986;DHT22;5546;48.714;8.738;2022-07-24T14:34:00;41.00;32.30
10986;DHT22;5546;48.714;8.738;2022-07-24T14:41:17;38.70;35.20
10986;DHT22;5546;48.714;8.738;2022-07-24T14:43:43;38.30;35.30
10986;DHT22;5546;48.714;8.738;2022-07-24T14:46:08;39.30;35.00
10986;DHT22;5546;48.714;8.738;2022-07-24T14:48:34;38.50;35.70
10986;DHT22;5546;48.714;8.738;2022-07-24T14:53:25;38.10;36.10
10986;DHT22;5546;48.714;8.738;2022-07-24T14:58:17;38.30;35.90
10986;DHT22;5546;48.714;8.738;2022-07-24T15:00:42;38.60;35.60
10986;DHT22;5546;48.714;8.738;2022-07-24T15:03:08;39.30;36.00
10986;DHT22;5546;48.714;8.738;2022-07-24T15:05:33;39.90;34.30
10986;DHT22;5546;48.714;8.738;2022-07-24T15:07:59;39.70;34.60
10986;DHT22;5546;48.714;8.738;2022-07-24T15:10:24;38.60;35.40
10986;DHT22;5546;48.714;8.738;2022-07-24T15:12:50;37.10;37.10
10986;DHT22;5546;48.714;8.738;2022-07-24T15:17:41;35.80;39.10
10986;DHT22;5546;48.714;8.738;2022-07-24T15:20:07;35.90;39.00
10986;DHT22;5546;48.714;8.738;2022-07-24T15:22:33;35.90;39.70
10986;DHT22;5546;48.714;8.738;2022-07-24T15:24:59;35.70;41.90
10986;DHT22;5546;48.714;8.738;2022-07-24T15:27:24;35.80;41.40
10986;DHT22;5546;48.714;8.738;2022-07-24T15:29:50;35.70;39.40
10986;DHT22;5546;48.714;8.738;2022-07-24T15:32:15;35.90;39.30
10986;DHT22;5546;48.714;8.738;2022-07-24T15:37:07;35.10;42.10
10986;DHT22;5546;48.714;8.738;2022-07-24T15:44:24;35.00;40.20
10986;DHT22;5546;48.714;8.738;2022-07-24T15:46:50;34.90;40.30
10986;DHT22;5546;48.714;8.738;2022-07-24T15:49:16;34.80;40.00
10986;DHT22;5546;48.714;8.738;2022-07-24T15:51:41;34.20;41.00
10986;DHT22;5546;48.714;8.738;2022-07-24T15:56:33;34.40;40.60
10986;DHT22;5546;48.714;8.738;2022-07-24T15:58:58;34.40;41.30
10986;DHT22;5546;48.714;8.738;2022-07-24T16:03:50;34.40;41.40
10986;DHT22;5546;48.714;8.738;2022-07-24T16:06:16;34.20;41.40
10986;DHT22;5546;48.714;8.738;2022-07-24T16:08:41;34.00;41.80
10986;DHT22;5546;48.714;8.738;2022-07-24T16:13:33;34.40;42.40
10986;DHT22;5546;48.714;8.738;2022-07-24T16:15:58;33.90;43.40
10986;DHT22;5546;48.714;8.738;2022-07-24T16:20:50;33.70;44.10
10986;DHT22;5546;48.714;8.738;2022-07-24T16:23:16;33.40;44.80
10986;DHT22;5546;48.714;8.738;2022-07-24T16:25:41;33.20;45.50
10986;DHT22;5546;48.714;8.738;2022-07-24T16:28:07;33.00;45.70
10986;DHT22;5546;48.714;8.738;2022-07-24T16:30:32;33.50;45.30
10986;DHT22;5546;48.714;8.738;2022-07-24T16:32:58;33.60;43.20
10986;DHT22;5546;48.714;8.738;2022-07-24T16:35:23;33.70;45.30
10986;DHT22;5546;48.714;8.738;2022-07-24T16:37:49;33.90;46.00
10986;DHT22;5546;48.714;8.738;2022-07-24T16:42:41;33.90;46.50
10986;DHT22;5546;48.714;8.738;2022-07-24T16:45:07;33.90;42.80
10986;DHT22;5546;48.714;8.738;2022-07-24T16:47:33;33.70;46.30
10986;DHT22;5546;48.714;8.738;2022-07-24T16:49:58;33.60;42.00
10986;DHT22;5546;48.714;8.738;2022-07-24T16:52:24;33.20;43.50
10986;DHT22;5546;48.714;8.738;2022-07-24T16:54:49;33.50;45.00
10986;DHT22;5546;48.714;8.738;2022-07-24T17:02:07;33.90;44.60
10986;DHT22;5546;48.714;8.738;2022-07-24T17:04:33;33.50;45.70
10986;DHT22;5546;48.714;8.738;2022-07-24T17:06:58;33.20;44.90
10986;DHT22;5546;48.714;8.738;2022-07-24T17:09:24;33.40;44.30
10986;DHT22;5546;48.714;8.738;2022-07-24T17:14:18;33.00;45.20
10986;DHT22;5546;48.714;8.738;2022-07-24T17:16:44;33.00;46.30
10986;DHT22;5546;48.714;8.738;2022-07-24T17:19:09;32.80;46.50
10986;DHT22;5546;48.714;8.738;2022-07-24T17:24:02;32.30;44.30
10986;DHT22;5546;48.714;8.738;2022-07-24T17:26:28;32.70;46.20
10986;DHT22;5546;48.714;8.738;2022-07-24T17:28:54;32.30;47.50
10986;DHT22;5546;48.714;8.738;2022-07-24T17:31:19;32.10;46.30
10986;DHT22;5546;48.714;8.738;2022-07-24T17:33:45;32.10;46.70
10986;DHT22;5546;48.714;8.738;2022-07-24T17:38:36;32.10;46.80
10986;DHT22;5546;48.714;8.738;2022-07-24T17:41:02;32.20;47.10
10986;DHT22;5546;48.714;8.738;2022-07-24T17:43:27;32.10;47.70
10986;DHT22;5546;48.714;8.738;2022-07-24T17:45:53;32.10;46.90
10986;DHT22;5546;48.714;8.738;2022-07-24T17:48:19;32.00;46.60
10986;DHT22;5546;48.714;8.738;2022-07-24T17:50:44;32.10;45.30
10986;DHT22;5546;48.714;8.738;2022-07-24T17:53:10;32.00;45.90
10986;DHT22;5546;48.714;8.738;2022-07-24T17:55:36;31.80;46.70
10986;DHT22;5546;48.714;8.738;2022-07-24T17:58:02;31.50;45.80
10986;DHT22;5546;48.714;8.738;2022-07-24T18:00:27;31.80;47.50
10986;DHT22;5546;48.714;8.738;2022-07-24T18:02:53;32.00;46.50